Terminal Aerodrome Forecast
Issued by NWS Green Bay, WI

Home | Current Version | Previous Version | Graphics & Text | Print | Product List | Glossary On
Versions: 1 2 3 4 5 6 7 8 9 10 11 12 13 14 15 16 17 18 19 20 21 22 23 24 25 26 27 28 29 30 31 32 33 34 35 36 37 38 39 40 41
000
FTUS43 KGRB 310300 AAB
TAFGRB
TAF AMD
KGRB 310356Z 3104/3124 03006KT P6SM -RA SCT025 OVC040
      TEMPO 3104/3106 4SM -RA BKN025
     FM310600 03009KT P6SM SCT040 BKN060
     FM311500 32005KT P6SM BKN035
     FM312000 29005KT P6SM VCSH BKN040=

USA.gov is the U.S. government's official web portal to all federal, state and local government web resources and services.